KWRI/WRI METAR and TAF weather

Enter ICAO airport designator
Station Type Date Time Source
KWRI METAR 2024/07/13 02:55 UTC NOAA

KWRI 130255Z 00000KT 10SM FEW140 23/22 A3018 RMK AO2A SLP219 T02320220 50005 $


Station Type Date Time Source
KWRI Decoded METAR 2024/07/13 02:55 UTC NOAA

Mcguire Air Force Base, NJ, United States (KWRI) 40-01N 074-36W
Jul 12, 2024 - 10:55 PM EDT / 2024.07.13 0255 UTC
Wind: Calm:0
Visibility: 10 mile(s):0
Sky conditions: mostly clear
Temperature: 73.8 F (23.2 C)
Dew Point: 71.6 F (22.0 C)
Relative Humidity: 92%
Pressure (altimeter): 30.18 in. Hg (1022 hPa)
Pressure tendency: 0.01 inches (0.5 hPa) higher than three hours ago
ob: KWRI 130255Z 00000KT 10SM FEW140 23/22 A3018 RMK AO2A SLP219 T02320220 50005
cycle: 3

Station Type Date Time Source
KWRI TAF 2024/07/13 02:11 UTC NOAA